createdAt,value
2022-08-02T00:02:58.598Z,11.40
2022-08-02T00:06:06.543Z,11.80
2022-08-02T00:08:45.687Z,11.50
2022-08-02T00:11:20.452Z,11.50
2022-08-02T00:13:56.338Z,12.10
2022-08-02T00:16:37.318Z,11.70
2022-08-02T00:19:34.788Z,11.90
2022-08-02T00:22:31.574Z,11.60
2022-08-02T00:25:05.408Z,12.60
2022-08-02T00:27:42.534Z,12.00
2022-08-02T00:30:19.112Z,12.80
2022-08-02T00:32:51.704Z,12.80
2022-08-02T00:35:29.810Z,13.60
2022-08-02T00:38:28.199Z,13.30
2022-08-02T00:41:01.563Z,13.30
2022-08-02T00:43:33.483Z,13.40
2022-08-02T00:46:31.646Z,14.80
2022-08-02T00:52:30.925Z,15.20
2022-08-02T00:55:18.193Z,17.20
2022-08-02T00:58:04.227Z,18.00
2022-08-02T01:01:06.157Z,18.00
2022-08-02T01:03:39.785Z,18.60
2022-08-02T01:06:17.622Z,18.60
2022-08-02T01:09:39.490Z,18.10
2022-08-02T01:12:16.027Z,18.50
2022-08-02T01:14:52.365Z,17.30
2022-08-02T01:21:41.777Z,19.00
2022-08-02T01:24:37.841Z,19.40
2022-08-02T01:30:31.213Z,18.00
2022-08-02T01:33:18.014Z,17.70
2022-08-02T01:36:18.584Z,17.70
2022-08-02T01:38:53.462Z,18.70
2022-08-02T01:41:33.029Z,19.30
2022-08-02T01:44:08.239Z,19.00
2022-08-02T01:46:43.853Z,20.70
2022-08-02T01:49:28.705Z,19.80
2022-08-02T01:55:35.364Z,19.50
2022-08-02T01:58:57.921Z,19.50
2022-08-02T02:01:31.893Z,18.90
2022-08-02T02:04:52.942Z,19.60
2022-08-02T02:07:30.192Z,18.60
2022-08-02T02:10:10.476Z,19.30
2022-08-02T02:12:54.802Z,18.30
2022-08-02T02:15:37.543Z,17.90
2022-08-02T02:19:12.418Z,18.20
2022-08-02T02:21:54.406Z,18.40
2022-08-02T02:24:28.918Z,17.90
2022-08-02T02:27:29.752Z,16.30
2022-08-02T02:30:06.624Z,17.80
2022-08-02T02:32:46.932Z,16.80
2022-08-02T02:35:22.467Z,17.40
2022-08-02T02:38:05.267Z,17.00
2022-08-02T02:40:38.568Z,17.10
2022-08-02T02:43:11.715Z,17.80
2022-08-02T02:46:11.166Z,17.60
2022-08-02T02:48:47.839Z,16.30
2022-08-02T02:51:27.060Z,16.30
2022-08-02T02:54:31.167Z,15.50
2022-08-02T02:57:19.609Z,17.80
2022-08-02T02:59:55.621Z,17.00
2022-08-02T03:02:51.129Z,17.70
2022-08-02T03:05:31.251Z,17.90
2022-08-02T03:08:11.296Z,18.20
2022-08-02T03:10:52.817Z,19.40
2022-08-02T03:13:25.235Z,21.00
2022-08-02T03:16:36.029Z,22.90
2022-08-02T03:19:15.287Z,23.00
2022-08-02T03:22:16.119Z,22.20
2022-08-02T03:24:50.733Z,23.60
2022-08-02T03:27:55.162Z,23.30
2022-08-02T03:30:35.735Z,22.60
2022-08-02T03:33:14.677Z,22.40
2022-08-02T03:36:19.179Z,23.10
2022-08-02T03:38:51.410Z,22.90
2022-08-02T03:41:31.170Z,22.60
2022-08-02T03:44:09.822Z,23.60
2022-08-02T03:46:48.221Z,24.50
2022-08-02T03:49:45.474Z,23.70
2022-08-02T03:52:22.357Z,24.70
2022-08-02T03:55:41.849Z,22.60
2022-08-02T03:58:29.683Z,24.20
2022-08-02T04:01:32.964Z,24.30
2022-08-02T04:04:30.757Z,25.10
2022-08-02T04:08:02.551Z,25.50
2022-08-02T04:14:14.499Z,25.40
2022-08-02T04:17:17.829Z,24.50
2022-08-02T04:19:58.602Z,24.60
2022-08-02T04:22:36.759Z,25.20
2022-08-02T04:25:34.470Z,24.20
2022-08-02T04:28:43.820Z,24.80
2022-08-02T04:31:44.663Z,25.20
2022-08-02T04:34:19.748Z,25.50
2022-08-02T04:37:20.144Z,25.80
2022-08-02T04:39:57.215Z,28.10
2022-08-02T04:42:55.918Z,27.10
2022-08-02T04:45:31.343Z,27.90
2022-08-02T04:48:06.700Z,28.70
2022-08-02T04:51:03.809Z,29.10
2022-08-02T04:57:26.358Z,26.10
2022-08-02T05:00:03.097Z,24.80
2022-08-02T05:03:27.106Z,22.30
2022-08-02T05:06:03.889Z,20.40
2022-08-02T05:08:56.085Z,19.00
2022-08-02T05:11:38.676Z,18.70
2022-08-02T05:14:14.266Z,17.20
2022-08-02T05:17:10.466Z,17.10
2022-08-02T05:20:29.971Z,17.60
2022-08-02T05:23:03.566Z,17.70
2022-08-02T05:28:39.012Z,26.90
2022-08-02T05:31:13.359Z,28.60
2022-08-02T05:33:49.667Z,30.70
2022-08-02T05:36:26.477Z,32.90
2022-08-02T05:39:56.009Z,34.80
2022-08-02T05:42:30.921Z,35.60
2022-08-02T05:45:10.271Z,34.60
2022-08-02T05:48:16.265Z,34.90
2022-08-02T05:50:50.808Z,34.30
2022-08-02T05:53:46.664Z,33.40
2022-08-02T05:56:58.966Z,34.30
2022-08-02T05:59:48.373Z,33.80
2022-08-02T06:02:31.782Z,33.20
2022-08-02T06:05:10.078Z,30.90
2022-08-02T06:07:44.691Z,31.00
2022-08-02T06:14:04.345Z,31.70
2022-08-02T06:16:42.222Z,30.10
2022-08-02T06:19:16.463Z,31.70
2022-08-02T06:22:33.203Z,37.70
2022-08-02T06:24:41.044Z,39.30
2022-08-02T06:27:13.754Z,38.10
2022-08-02T06:29:47.025Z,35.50
2022-08-02T06:32:20.497Z,35.00
2022-08-02T06:34:52.685Z,36.60
2022-08-02T06:37:36.861Z,36.60
2022-08-02T06:40:22.820Z,35.00
2022-08-02T06:42:59.790Z,33.50
2022-08-02T06:45:32.978Z,34.70
2022-08-02T06:48:06.581Z,33.50
2022-08-02T06:50:39.866Z,34.00
2022-08-02T06:53:13.668Z,33.10
2022-08-02T06:55:48.615Z,34.90
2022-08-02T06:58:22.127Z,39.60
2022-08-02T07:00:58.707Z,40.00
2022-08-02T07:03:36.675Z,36.80
2022-08-02T07:06:15.453Z,32.60
2022-08-02T07:09:21.516Z,31.10
2022-08-02T07:11:57.838Z,28.10
2022-08-02T07:14:30.325Z,28.30
2022-08-02T07:17:08.651Z,27.70
2022-08-02T07:20:11.638Z,27.90
2022-08-02T07:23:09.006Z,28.90
2022-08-02T07:26:03.331Z,29.40
2022-08-02T07:28:42.209Z,27.70
2022-08-02T07:31:19.616Z,26.60
2022-08-02T07:33:51.546Z,24.30
2022-08-02T07:36:24.641Z,24.30
2022-08-02T07:39:23.143Z,24.20
2022-08-02T07:42:24.663Z,25.20
2022-08-02T07:48:29.704Z,23.50
2022-08-02T07:51:08.770Z,27.60
2022-08-02T07:53:50.669Z,26.80
2022-08-02T07:56:33.761Z,29.60
2022-08-02T07:59:06.627Z,30.30
2022-08-02T08:01:39.015Z,37.70
2022-08-02T08:04:19.358Z,36.30
2022-08-02T08:06:54.455Z,33.60
2022-08-02T08:09:27.019Z,34.00
2022-08-02T08:11:59.710Z,31.40
2022-08-02T08:14:31.690Z,31.30
2022-08-02T08:17:10.745Z,25.30
2022-08-02T08:19:51.458Z,22.90
2022-08-02T08:22:26.685Z,22.60
2022-08-02T08:24:58.936Z,19.30
2022-08-02T08:27:31.471Z,16.70
2022-08-02T08:30:05.086Z,16.00
2022-08-02T08:32:37.802Z,15.80
2022-08-02T08:35:13.885Z,15.20
2022-08-02T08:37:46.600Z,14.20
2022-08-02T08:40:19.985Z,12.80
2022-08-02T08:42:52.955Z,11.80
2022-08-02T08:45:25.058Z,12.00
2022-08-02T08:48:07.556Z,11.10
2022-08-02T08:50:43.466Z,12.80
2022-08-02T08:53:17.233Z,13.10
2022-08-02T08:55:58.295Z,13.20
2022-08-02T08:58:30.354Z,12.60
2022-08-02T09:01:06.456Z,12.20
2022-08-02T09:03:39.707Z,11.10
2022-08-02T09:06:11.944Z,11.10
2022-08-02T09:08:44.731Z,11.10
2022-08-02T09:11:19.233Z,11.60
2022-08-02T09:13:57.815Z,11.00
2022-08-02T09:16:35.054Z,12.30
2022-08-02T09:19:22.799Z,12.10
2022-08-02T09:22:02.671Z,11.30
2022-08-02T09:24:51.989Z,11.30
2022-08-02T09:28:11.992Z,10.60
2022-08-02T09:30:46.702Z,11.00
2022-08-02T09:33:32.637Z,11.10
2022-08-02T09:36:12.342Z,10.40
2022-08-02T09:39:21.426Z,10.60
2022-08-02T09:41:57.939Z,10.30
2022-08-02T09:44:42.240Z,8.90
2022-08-02T09:47:20.054Z,10.10
2022-08-02T09:49:56.687Z,10.10
2022-08-02T09:52:37.093Z,9.30
2022-08-02T09:55:21.659Z,9.60
2022-08-02T09:58:00.987Z,10.40
2022-08-02T10:00:52.569Z,9.70
2022-08-02T10:03:37.275Z,10.20
2022-08-02T10:06:38.797Z,9.90
2022-08-02T10:09:18.610Z,9.50
2022-08-02T10:11:51.407Z,9.30
2022-08-02T10:14:24.631Z,9.50
2022-08-02T10:16:58.581Z,8.40
2022-08-02T10:20:00.440Z,9.90
2022-08-02T10:22:24.509Z,9.10
2022-08-02T10:24:57.386Z,9.60
2022-08-02T10:27:49.163Z,8.70
2022-08-02T10:30:27.029Z,9.30
2022-08-02T10:33:00.800Z,8.80
2022-08-02T10:35:37.630Z,11.00
2022-08-02T10:38:14.592Z,10.90
2022-08-02T10:40:51.427Z,10.00
2022-08-02T10:43:46.518Z,9.70
2022-08-02T10:46:34.543Z,9.60
2022-08-02T10:49:37.824Z,8.80
2022-08-02T10:52:11.538Z,9.40
2022-08-02T10:54:46.719Z,8.80
2022-08-02T10:57:21.175Z,8.00
2022-08-02T10:59:56.211Z,8.80
2022-08-02T11:02:45.129Z,9.00
2022-08-02T11:05:19.570Z,8.40
2022-08-02T11:07:52.215Z,8.60
2022-08-02T11:10:41.199Z,9.00
2022-08-02T11:13:17.889Z,9.80
2022-08-02T11:15:55.358Z,9.60
2022-08-02T11:19:08.806Z,10.30
2022-08-02T11:21:40.717Z,10.30
2022-08-02T11:24:31.351Z,9.50
2022-08-02T11:27:05.453Z,8.90
2022-08-02T11:29:42.263Z,8.20
2022-08-02T11:32:21.229Z,8.40
2022-08-02T11:34:55.613Z,8.50
2022-08-02T11:37:35.789Z,9.00
2022-08-02T11:40:20.203Z,9.30
2022-08-02T11:42:55.851Z,10.40
2022-08-02T11:45:30.245Z,9.60
2022-08-02T11:48:05.652Z,9.10
2022-08-02T11:50:39.155Z,8.40
2022-08-02T11:53:21.858Z,9.40
2022-08-02T11:55:59.603Z,8.10
2022-08-02T12:02:25.808Z,9.10
2022-08-02T12:06:05.153Z,7.80
2022-08-02T12:08:32.184Z,8.30
2022-08-02T12:11:08.494Z,8.30
2022-08-02T12:13:56.716Z,7.40
2022-08-02T12:16:53.483Z,8.10
2022-08-02T12:19:28.584Z,6.70
2022-08-02T12:22:28.575Z,7.40
2022-08-02T12:25:34.056Z,6.80
2022-08-02T12:28:31.114Z,7.40
2022-08-02T12:31:06.336Z,7.00
2022-08-02T12:33:56.585Z,6.40
2022-08-02T12:36:56.380Z,6.50
2022-08-02T12:39:43.234Z,6.00
2022-08-02T12:42:22.770Z,6.50
2022-08-02T12:45:00.406Z,6.20
2022-08-02T12:47:36.031Z,6.00
2022-08-02T12:50:26.462Z,6.50
2022-08-02T12:53:10.621Z,6.50
2022-08-02T12:56:04.097Z,6.70
2022-08-02T13:01:51.123Z,6.50
2022-08-02T13:04:29.410Z,5.90
2022-08-02T13:07:04.074Z,6.60
2022-08-02T13:09:40.404Z,7.00
2022-08-02T13:12:17.505Z,6.10
2022-08-02T13:14:59.293Z,6.60
2022-08-02T13:17:37.659Z,6.90
2022-08-02T13:20:15.592Z,6.10
2022-08-02T13:22:53.444Z,6.20
2022-08-02T13:25:59.287Z,6.30
2022-08-02T13:29:18.250Z,5.80
2022-08-02T13:31:52.606Z,6.00
2022-08-02T13:34:25.964Z,5.80
2022-08-02T13:36:59.362Z,6.20
2022-08-02T13:40:26.684Z,7.00
2022-08-02T13:43:03.562Z,6.30
2022-08-02T13:45:37.483Z,6.00
2022-08-02T13:48:16.684Z,6.50
2022-08-02T13:51:14.924Z,6.40
2022-08-02T13:53:52.316Z,5.80
2022-08-02T13:57:12.111Z,6.70
2022-08-02T13:59:56.094Z,6.70
2022-08-02T14:02:37.316Z,6.00
2022-08-02T14:05:39.288Z,6.00
2022-08-02T14:08:38.052Z,6.00
2022-08-02T14:11:13.980Z,6.00
2022-08-02T14:14:16.303Z,5.80
2022-08-02T14:17:23.167Z,5.80
2022-08-02T14:20:23.175Z,5.70
2022-08-02T14:23:09.969Z,5.10
2022-08-02T14:25:44.713Z,4.90
2022-08-02T14:28:46.761Z,5.70
2022-08-02T14:31:27.065Z,5.80
2022-08-02T14:34:26.083Z,5.20
2022-08-02T14:37:06.614Z,4.90
2022-08-02T14:40:00.600Z,5.30
2022-08-02T14:45:56.786Z,5.10
2022-08-02T14:48:32.724Z,4.60
2022-08-02T14:54:56.833Z,4.60
2022-08-02T14:57:32.305Z,4.50
2022-08-02T15:00:13.547Z,4.70
2022-08-02T15:02:51.708Z,4.70
2022-08-02T15:05:26.751Z,4.30
2022-08-02T15:08:49.114Z,4.20
2022-08-02T15:11:23.971Z,4.20
2022-08-02T15:13:59.113Z,4.60
2022-08-02T15:16:55.574Z,4.70
2022-08-02T15:19:56.621Z,4.00
2022-08-02T15:22:50.096Z,4.30
2022-08-02T15:25:28.596Z,4.40
2022-08-02T15:28:10.738Z,4.20
2022-08-02T15:30:44.750Z,4.00
2022-08-02T15:33:17.333Z,3.90
2022-08-02T15:36:13.799Z,4.00
2022-08-02T15:38:47.213Z,3.80
2022-08-02T15:41:22.182Z,4.00
2022-08-02T15:44:45.335Z,3.80
2022-08-02T15:48:08.361Z,4.10
2022-08-02T15:50:42.970Z,3.60
2022-08-02T15:53:44.335Z,4.10
2022-08-02T15:56:25.953Z,4.00
2022-08-02T15:59:03.091Z,3.50
2022-08-02T16:01:43.536Z,4.10
2022-08-02T16:05:14.227Z,3.80
2022-08-02T16:07:50.016Z,4.40
2022-08-02T16:10:51.503Z,4.20
2022-08-02T16:13:53.507Z,4.50
2022-08-02T16:17:13.528Z,4.50
2022-08-02T16:24:01.126Z,4.40
2022-08-02T16:26:36.211Z,4.30
2022-08-02T16:29:37.136Z,3.90
2022-08-02T16:32:12.990Z,3.80
2022-08-02T16:35:08.217Z,4.60
2022-08-02T16:38:06.232Z,4.10
2022-08-02T16:40:38.653Z,4.40
2022-08-02T16:43:15.906Z,4.40
2022-08-02T16:46:19.049Z,4.20
2022-08-02T16:50:05.423Z,4.30
2022-08-02T16:52:43.602Z,4.20
2022-08-02T16:55:45.873Z,4.80
2022-08-02T16:58:24.527Z,4.80
2022-08-02T17:00:57.759Z,5.10
2022-08-02T17:03:33.584Z,5.00
2022-08-02T17:06:26.346Z,5.10
2022-08-02T17:09:00.590Z,5.30
2022-08-02T17:11:33.509Z,5.30
2022-08-02T17:14:05.911Z,5.20
2022-08-02T17:16:41.747Z,5.80
2022-08-02T17:19:17.588Z,5.90
2022-08-02T17:21:50.457Z,5.50
2022-08-02T17:24:22.526Z,5.70
2022-08-02T17:26:58.633Z,5.60
2022-08-02T17:29:32.985Z,6.00
2022-08-02T17:32:09.306Z,5.50
2022-08-02T17:34:49.100Z,5.50
2022-08-02T17:37:32.679Z,5.90
2022-08-02T17:40:08.001Z,6.10
2022-08-02T17:42:42.484Z,5.90
2022-08-02T17:45:25.241Z,5.80
2022-08-02T17:48:05.148Z,6.30
2022-08-02T17:50:38.238Z,6.70
2022-08-02T17:53:11.529Z,5.90
2022-08-02T17:55:44.910Z,6.00
2022-08-02T17:58:24.753Z,6.00
2022-08-02T18:01:23.711Z,5.90
2022-08-02T18:03:57.952Z,5.90
2022-08-02T18:06:30.199Z,6.00
2022-08-02T18:09:04.323Z,6.10
2022-08-02T18:11:52.256Z,6.00
2022-08-02T18:14:26.532Z,6.30
2022-08-02T18:17:01.148Z,7.60
2022-08-02T18:19:42.644Z,10.60
2022-08-02T18:22:16.651Z,8.70
2022-08-02T18:24:49.627Z,8.30
2022-08-02T18:27:22.600Z,6.90
2022-08-02T18:30:00.091Z,7.10
2022-08-02T18:33:54.387Z,6.90
2022-08-02T18:35:31.227Z,7.50
2022-08-02T18:38:10.998Z,7.40
2022-08-02T18:40:50.828Z,7.70
2022-08-02T18:43:25.047Z,10.00
2022-08-02T18:46:06.518Z,8.80
2022-08-02T18:48:48.429Z,9.20
2022-08-02T18:51:21.660Z,9.00
2022-08-02T18:53:55.637Z,9.80
2022-08-02T18:56:29.410Z,9.30
2022-08-02T18:59:14.587Z,10.10
2022-08-02T19:01:51.050Z,9.50
2022-08-02T19:04:28.287Z,9.50
2022-08-02T19:07:08.056Z,9.40
2022-08-02T19:13:17.536Z,9.70
2022-08-02T19:15:58.272Z,10.60
2022-08-02T19:18:30.601Z,10.60
2022-08-02T19:21:07.445Z,10.60
2022-08-02T19:23:54.605Z,11.80
2022-08-02T19:26:28.626Z,11.40
2022-08-02T19:29:08.693Z,11.00
2022-08-02T19:32:08.636Z,12.20
2022-08-02T19:41:44.010Z,12.60
2022-08-02T19:44:45.014Z,13.30
2022-08-02T19:47:19.705Z,13.50
2022-08-02T19:49:53.177Z,17.40
2022-08-02T19:52:30.249Z,15.40
2022-08-02T19:56:01.205Z,19.00
2022-08-02T19:58:23.692Z,19.80
2022-08-02T20:01:26.947Z,47.80
2022-08-02T20:04:22.838Z,29.10
2022-08-02T20:06:56.902Z,60.10
2022-08-02T20:09:56.848Z,47.50
2022-08-02T20:12:36.847Z,45.70
2022-08-02T20:15:15.747Z,37.60
2022-08-02T20:17:58.109Z,47.00
2022-08-02T20:20:35.846Z,39.70
2022-08-02T20:23:33.510Z,31.40
2022-08-02T20:26:35.157Z,26.20
2022-08-02T20:29:08.761Z,21.30
2022-08-02T20:34:48.626Z,19.00
2022-08-02T20:37:56.265Z,18.30
2022-08-02T20:41:08.116Z,20.90
2022-08-02T20:44:16.177Z,20.20
2022-08-02T20:47:10.878Z,20.90
2022-08-02T20:53:00.033Z,20.70
2022-08-02T20:55:36.063Z,19.90
2022-08-02T20:58:35.504Z,20.60
2022-08-02T21:01:09.400Z,20.10
2022-08-02T21:04:29.602Z,20.60
2022-08-02T21:07:03.718Z,20.80
2022-08-02T21:09:53.433Z,20.10
2022-08-02T21:12:31.207Z,19.70
2022-08-02T21:15:09.498Z,20.00
2022-08-02T21:17:58.816Z,20.10
2022-08-02T21:20:43.032Z,20.70
2022-08-02T21:23:54.753Z,21.10
2022-08-02T21:26:31.208Z,21.80
2022-08-02T21:29:07.333Z,22.10
2022-08-02T21:31:43.472Z,22.80
2022-08-02T21:34:27.106Z,22.60
2022-08-02T21:37:01.438Z,21.80
2022-08-02T21:39:42.079Z,22.00
2022-08-02T21:42:22.298Z,22.20
2022-08-02T21:44:56.149Z,23.20
2022-08-02T21:47:30.988Z,23.40
2022-08-02T21:50:13.558Z,24.80
2022-08-02T21:52:52.010Z,23.30
2022-08-02T21:56:00.758Z,23.60
2022-08-02T21:58:20.080Z,25.10
2022-08-02T22:00:52.794Z,24.40
2022-08-02T22:03:24.699Z,25.30
2022-08-02T22:06:02.403Z,25.70
2022-08-02T22:08:38.337Z,26.80
2022-08-02T22:11:17.253Z,25.80
2022-08-02T22:13:50.388Z,25.50
2022-08-02T22:16:24.093Z,25.80
2022-08-02T22:18:59.681Z,25.50
2022-08-02T22:21:46.892Z,25.90
2022-08-02T22:24:29.683Z,26.10
2022-08-02T22:27:02.543Z,26.30
2022-08-02T22:29:35.328Z,26.00
2022-08-02T22:32:10.940Z,27.00
2022-08-02T22:34:53.743Z,25.80
2022-08-02T22:38:17.660Z,27.00
2022-08-02T22:40:18.412Z,25.70
2022-08-02T22:42:50.486Z,26.40
2022-08-02T22:45:23.794Z,26.00
2022-08-02T22:47:57.830Z,28.60
2022-08-02T22:50:31.213Z,26.90
2022-08-02T22:53:04.681Z,27.80
2022-08-02T22:55:41.587Z,28.80
2022-08-02T22:58:16.325Z,27.90
2022-08-02T23:00:52.131Z,27.00
2022-08-02T23:03:25.300Z,27.20
2022-08-02T23:05:58.310Z,26.30
2022-08-02T23:08:30.229Z,27.10
2022-08-02T23:11:03.661Z,27.00
2022-08-02T23:13:36.953Z,25.30
2022-08-02T23:16:27.969Z,26.40
2022-08-02T23:19:18.709Z,25.10
2022-08-02T23:22:02.680Z,25.40
2022-08-02T23:24:36.234Z,25.50
2022-08-02T23:27:09.265Z,25.00
2022-08-02T23:29:42.855Z,25.20
2022-08-02T23:32:15.057Z,26.30
2022-08-02T23:34:47.845Z,26.00
2022-08-02T23:37:19.761Z,26.00
2022-08-02T23:39:52.309Z,24.80
2022-08-02T23:42:25.557Z,26.70
2022-08-02T23:44:59.855Z,25.90
2022-08-02T23:47:33.262Z,25.50
2022-08-02T23:50:07.853Z,26.80
2022-08-02T23:52:40.322Z,26.10
2022-08-02T23:55:13.559Z,26.30
2022-08-02T23:57:47.558Z,27.00
